Atsuta — 3FQW8 — position and weather

sailwx.info

Track history (hours):
 
Tides and Currents Weather Stations Pressure Air Temp Water Temp Dewpoint Dewpoint Depression Visibility Wind Speed Wind Dir Waves Ship Positions

Atsuta

Last reported at 2018-May-15 04:29 UTC. Time now 2018-Jun-25 17:37 UTC.
Position N 34°03' E 129°35'.
Warning: this ship's position is 41 days out of date.

Length 155 m; beam 24.5 m.

MMSI: 351212000.

Date/timePositionNaut miles runAvg speedWind from/ knotsBaromVisibWave heightAir tempDewpointWater temp
2018-May-15 04:29N 34°03' E 129°35'4 9.0
2018-May-15 04:00N 34°03' E 129°40'26 9.0
2018-May-15 01:09N 34°03' E 130°11'2 9.3
2018-May-15 00:58N 34°03' E 130°13'4 9.2
2018-May-15 00:30N 34°03' E 130°18'5 9.3
2018-May-15 00:00N 34°03' E 130°23'5 9.4
2018-May-14 23:30N 34°03' E 130°29'5 9.6
2018-May-14 23:00N 34°03' E 130°35'5 9.9
2018-May-14 22:30N 34°03' E 130°41'5 9.8
2018-May-14 22:00N 34°02' E 130°47'4 8.9
2018-May-14 21:30N 33°59' E 130°51'5 9.2
2018-May-14 21:00N 33°55' E 130°53'3 5.9
2018-May-14 20:30N 33°57' E 130°56'4 7.5
2018-May-14 20:00N 33°59' E 131°00'5 9.6
2018-May-14 19:30N 33°56' E 131°05'5 9.9
2018-May-14 19:00N 33°53' E 131°10'5 9.5
2018-May-14 18:30N 33°52' E 131°15'5 9.4
2018-May-14 18:00N 33°51' E 131°21'5 9.4
2018-May-14 17:30N 33°50' E 131°26'5 9.1
2018-May-14 17:00N 33°49' E 131°32'5 9.5
2018-May-14 16:30N 33°48' E 131°37'5 8.9
2018-May-14 15:58N 33°46' E 131°43'4 8.7
2018-May-14 15:30N 33°46' E 131°48'5 9.1
2018-May-14 14:58N 33°45' E 131°53'4 9.3
2018-May-14 14:30N 33°44' E 131°58'5 9.5
2018-May-14 14:00N 33°43' E 132°04'6 9.4
2018-May-14 13:24N 33°42' E 132°11'20 9.4
2018-May-14 11:16N 33°51' E 132°33'2 8.9
2018-May-14 11:00N 33°52' E 132°35'4 8.2
2018-May-14 10:28N 33°55' E 132°39'3 7.3
2018-May-14 09:59N 33°57' E 132°42'4 8.0
2018-May-14 09:30N 34°01' E 132°45'84 8.6
2018-May-13 23:43N 34°25' E 134°22'210.0
2018-May-13 23:30N 34°26' E 134°25'510.0
2018-May-13 23:00N 34°28' E 134°30'510.3
2018-May-13 22:29N 34°30' E 134°36'510.2
2018-May-13 22:00N 34°31' E 134°42'510.9
2018-May-13 21:30N 34°34' E 134°48'612.1
2018-May-13 21:00N 34°36' E 134°55'510.6
2018-May-13 20:30N 34°38' E 135°01'5 9.6
2018-May-13 20:00N 34°35' E 135°05'5 9.6
2018-May-13 19:31N 34°30' E 135°04'5 9.8
2018-May-13 19:00N 34°25' E 135°02'5 9.5
2018-May-13 18:31N 34°21' E 135°01'4 8.8
2018-May-13 18:01N 34°17' E 134°59'4 8.5
2018-May-13 17:30N 34°12' E 134°60'5 9.3
2018-May-13 17:00N 34°08' E 134°60'5 9.7
2018-May-13 16:31N 34°03' E 135°00'5 9.4
2018-May-13 16:00N 33°58' E 135°01'4 9.0
2018-May-13 15:30N 33°54' E 135°01'177 7.7
2018-May-12 16:36N 34°33' E 138°31'1 9.1
2018-May-12 16:29N 34°33' E 138°32'5 9.3
2018-May-12 15:54N 34°33' E 138°38'8 8.9
2018-May-12 14:59N 34°34' E 138°48'4 8.0
2018-May-12 14:27N 34°35' E 138°53'4 7.9
2018-May-12 14:00N 34°36' E 138°57'5 8.8
2018-May-12 13:29N 34°38' E 139°02'4 8.5
2018-May-12 12:58N 34°41' E 139°06'4 8.2
2018-May-12 12:27N 34°44' E 139°10'3 7.7
2018-May-12 12:00N 34°46' E 139°13'6 7.3
2018-May-12 11:08N 34°51' E 139°19'2 6.5
2018-May-12 10:51N 34°52' E 139°20'3 7.3
2018-May-12 10:26N 34°54' E 139°23'6 7.6
2018-May-12 09:39N 34°58' E 139°29'3 7.6
2018-May-12 09:18N 34°59' E 139°31'3 7.5
2018-May-12 08:57N 35°01' E 139°34'4 7.6
2018-May-12 08:30N 35°04' E 139°37'4 8.2
2018-May-12 08:00N 35°06' E 139°40'4 8.2
2018-May-12 07:31N 35°09' E 139°44'4 8.7
2018-May-12 07:01N 35°13' E 139°46'5 9.3
2018-May-12 06:31N 35°17' E 139°45'5 9.8
2018-May-12 06:01N 35°22' E 139°42'4 8.8
2018-May-12 05:31N 35°26' E 139°42'3 5.7
2018-May-12 04:58N 35°28' E 139°39'0 0.1
2018-May-12 04:28N 35°28' E 139°39'0 0.0
2018-May-12 03:58N 35°28' E 139°39'0 0.0
2018-May-12 03:28N 35°28' E 139°39'0 0.0
2018-May-12 02:58N 35°28' E 139°39'0 0.0
2018-May-12 02:28N 35°28' E 139°39'0 0.0
2018-May-12 01:58N 35°28' E 139°39'0 0.0
2018-May-12 01:28N 35°28' E 139°39'0 0.0
2018-May-12 00:58N 35°28' E 139°39'0 0.0
2018-May-12 00:28N 35°28' E 139°39'0 0.0
2018-May-11 23:58N 35°28' E 139°39'0 0.0
2018-May-11 23:28N 35°28' E 139°39'0 0.0
2018-May-11 22:58N 35°28' E 139°39'0 0.0
2018-May-11 22:28N 35°28' E 139°39'0 0.0
2018-May-11 21:55N 35°28' E 139°39'0 0.0
2018-May-11 21:28N 35°28' E 139°39'0 0.0
2018-May-11 20:58N 35°28' E 139°39'0 0.0
2018-May-11 20:28N 35°28' E 139°39'0 0.0
2018-May-11 19:58N 35°28' E 139°39'0 0.0
2018-May-11 19:28N 35°28' E 139°39'0 0.0
2018-May-11 18:58N 35°28' E 139°39'0 0.0
2018-May-11 18:28N 35°28' E 139°39'0 0.0
2018-May-11 17:58N 35°28' E 139°39'0 0.0
2018-May-11 17:28N 35°28' E 139°39'0 0.0
2018-May-11 16:58N 35°28' E 139°39'0 0.0
2018-May-11 16:28N 35°28' E 139°39'0 0.0
2018-May-11 15:58N 35°28' E 139°39'0 0.0
2018-May-11 15:28N 35°28' E 139°39'0 0.0
2018-May-11 14:58N 35°28' E 139°39'0 0.0
2018-May-11 14:28N 35°28' E 139°39'0 0.0
2018-May-11 13:58N 35°28' E 139°39'0 0.0
2018-May-11 13:28N 35°28' E 139°39'0 0.0
2018-May-11 12:58N 35°28' E 139°39'0 0.0
2018-May-11 12:28N 35°28' E 139°39'0 0.0
2018-May-11 11:58N 35°28' E 139°39'0 0.0
2018-May-11 11:28N 35°28' E 139°39'0 0.0
2018-May-11 10:58N 35°28' E 139°39'0 0.0
2018-May-11 10:28N 35°28' E 139°39'0 0.0
2018-May-11 09:58N 35°28' E 139°39'0 0.0
2018-May-11 09:28N 35°28' E 139°39'0 0.0
2018-May-11 08:58N 35°28' E 139°39'0 0.0
2018-May-11 08:28N 35°28' E 139°39'0 0.0
2018-May-11 07:58N 35°28' E 139°39'0 0.0
2018-May-11 07:28N 35°28' E 139°39'0 0.0
2018-May-11 06:58N 35°28' E 139°39'0 0.0
2018-May-11 06:31N 35°28' E 139°39'0 0.0
2018-May-11 05:55N 35°28' E 139°39'0 0.0
2018-May-11 05:31N 35°28' E 139°39'0 0.0
2018-May-11 05:00N 35°28' E 139°39'0 0.0
2018-May-11 04:30N 35°28' E 139°39'0 0.0
2018-May-11 04:00N 35°28' E 139°39'0 0.0
2018-May-11 03:30N 35°28' E 139°39'0 0.0
2018-May-11 03:00N 35°28' E 139°39'0 0.0
2018-May-11 02:30N 35°28' E 139°39'0 0.0
2018-May-11 02:00N 35°28' E 139°39'0 0.0
2018-May-11 01:30N 35°28' E 139°39'0 0.0
2018-May-11 01:00N 35°28' E 139°39'0 0.0
2018-May-11 00:30N 35°28' E 139°39'0 0.0
2018-May-11 00:00N 35°28' E 139°39'0 0.0
2018-May-10 23:30N 35°28' E 139°39'0 0.0
2018-May-10 23:00N 35°28' E 139°39'0 0.0
2018-May-10 22:31N 35°28' E 139°39'0 0.9
2018-May-10 22:00N 35°28' E 139°40'3 6.9
2018-May-10 21:30N 35°26' E 139°43'1 1.1
2018-May-10 21:00N 35°26' E 139°43'0 0.0
2018-May-10 20:30N 35°26' E 139°43'0 0.0
2018-May-10 20:00N 35°26' E 139°43'0 0.0
2018-May-10 19:30N 35°26' E 139°43'0 0.0
2018-May-10 19:00N 35°26' E 139°43'0 0.0
2018-May-10 18:30N 35°26' E 139°43'0 0.0
2018-May-10 18:00N 35°26' E 139°43'0 0.0
2018-May-10 17:30N 35°26' E 139°43'0 0.0
2018-May-10 17:00N 35°26' E 139°43'0 0.9
2018-May-10 16:30N 35°26' E 139°43'3 6.9
2018-May-10 16:00N 35°22' E 139°43'5 9.8
2018-May-10 15:30N 35°18' E 139°45'5 9.4
2018-May-10 15:00N 35°13' E 139°47'5 9.5
2018-May-10 14:30N 35°09' E 139°45'5 9.4
2018-May-10 13:58N 35°04' E 139°42'510.1
2018-May-10 13:30N 35°02' E 139°38'510.7
2018-May-10 13:00N 34°58' E 139°32'611.0
2018-May-10 12:30N 34°55' E 139°27'1310.9
2018-May-10 11:16N 34°46' E 139°15'410.9
2018-May-10 10:56N 34°43' E 139°12'510.6
2018-May-10 10:30N 34°40' E 139°08'710.4
2018-May-10 09:50N 34°37' E 139°00'410.7
2018-May-10 09:29N 34°35' E 138°56'510.4
2018-May-10 08:59N 34°34' E 138°50'510.1
2018-May-10 08:28N 34°33' E 138°44'510.3
2018-May-10 07:59N 34°33' E 138°38'610.9
2018-May-10 07:26N 34°32' E 138°31'510.9
2018-May-10 06:57N 34°32' E 138°24'510.8
2018-May-10 06:30N 34°31' E 138°18'610.7
2018-May-10 05:59N 34°31' E 138°12'159 8.4
2018-May-09 11:09N 33°47' E 135°07'511.1
2018-May-09 10:44N 33°51' E 135°03'311.5
2018-May-09 10:30N 33°53' E 135°01'611.5
2018-May-09 10:00N 33°59' E 135°01'611.4
2018-May-09 09:30N 34°04' E 135°00'510.9
2018-May-09 09:00N 34°10' E 134°59'611.4
2018-May-09 08:30N 34°15' E 134°59'511.0
2018-May-09 08:00N 34°21' E 135°00'4 8.6
2018-May-09 07:30N 34°23' E 135°04'4 7.6
2018-May-09 07:00N 34°25' E 135°09'0 0.1
2018-May-09 06:28N 34°25' E 135°09'0 0.1
2018-May-09 05:58N 34°25' E 135°09'0 0.1
2018-May-09 05:25N 34°25' E 135°09'0 0.0
2018-May-09 04:58N 34°25' E 135°09'0 0.0
2018-May-09 04:28N 34°25' E 135°09'0 0.0
2018-May-09 03:58N 34°25' E 135°09'0 0.0
2018-May-09 03:28N 34°25' E 135°09'0 0.0
2018-May-09 02:58N 34°25' E 135°09'0 0.0
2018-May-09 02:28N 34°25' E 135°09'0 0.0
2018-May-09 01:58N 34°25' E 135°09'0 0.0
2018-May-09 01:28N 34°25' E 135°09'0 0.0
2018-May-09 00:58N 34°25' E 135°09'0 0.0
2018-May-09 00:28N 34°25' E 135°09'0 0.0
2018-May-08 23:58N 34°25' E 135°09'0 0.0
2018-May-08 23:28N 34°25' E 135°09'0 0.0
2018-May-08 22:58N 34°25' E 135°09'0 0.0
2018-May-08 22:25N 34°25' E 135°09'0 0.0
2018-May-08 21:58N 34°25' E 135°09'0 0.0
2018-May-08 21:28N 34°25' E 135°09'0 0.0
2018-May-08 20:58N 34°25' E 135°09'0 0.0
2018-May-08 20:28N 34°25' E 135°09'0 0.1
2018-May-08 19:58N 34°25' E 135°09'0 0.0
2018-May-08 19:28N 34°25' E 135°09'0 0.1
2018-May-08 18:55N 34°25' E 135°09'0 0.0
2018-May-08 18:28N 34°25' E 135°09'0 0.1
2018-May-08 17:58N 34°25' E 135°09'0 0.1
2018-May-08 17:28N 34°25' E 135°09'0 0.0
2018-May-08 16:58N 34°25' E 135°09'0 0.0
2018-May-08 16:28N 34°25' E 135°09'0 0.0
2018-May-08 15:58N 34°25' E 135°09'0 0.0
2018-May-08 15:28N 34°25' E 135°09'0 0.1
2018-May-08 15:01N 34°25' E 135°09'0 0.0
2018-May-08 14:31N 34°25' E 135°09'0 0.0
2018-May-08 14:01N 34°25' E 135°09'0 0.0
2018-May-08 13:27N 34°25' E 135°09'0 0.0
2018-May-08 13:00N 34°25' E 135°09'0 0.0
2018-May-08 12:30N 34°25' E 135°09'0 0.0
2018-May-08 12:00N 34°25' E 135°09'0 0.0
2018-May-08 11:30N 34°25' E 135°09'0 0.0
2018-May-08 11:00N 34°25' E 135°09'0 0.0
2018-May-08 10:30N 34°25' E 135°09'0 0.0
2018-May-08 10:00N 34°25' E 135°09'0 0.1
2018-May-08 09:30N 34°25' E 135°09'0 0.1
2018-May-08 09:00N 34°25' E 135°09'0 0.0
2018-May-08 08:30N 34°25' E 135°09'0 0.1
2018-May-08 08:00N 34°25' E 135°09'0 0.0
2018-May-08 07:30N 34°25' E 135°09'0 0.0
2018-May-08 07:00N 34°25' E 135°09'0 0.1
2018-May-08 06:30N 34°25' E 135°09'0 0.0
2018-May-08 06:00N 34°25' E 135°09'0 0.0
2018-May-08 05:30N 34°25' E 135°09'0 0.1
2018-May-08 05:00N 34°25' E 135°09'0 0.0
2018-May-08 04:30N 34°25' E 135°09'0 0.1
2018-May-08 04:00N 34°25' E 135°09'0 0.0
2018-May-08 03:30N 34°25' E 135°09'0 0.1
2018-May-08 03:00N 34°25' E 135°09'0 0.0
2018-May-08 02:30N 34°25' E 135°09'0 0.0
2018-May-08 02:00N 34°25' E 135°09'0 0.0
2018-May-08 01:30N 34°25' E 135°09'0 0.0
2018-May-08 01:00N 34°25' E 135°09'0 0.0
2018-May-08 00:30N 34°25' E 135°09'0 0.0
2018-May-08 00:00N 34°25' E 135°09'0 0.0
2018-May-07 23:30N 34°25' E 135°09'0 0.0
2018-May-07 23:00N 34°25' E 135°09'0 0.0
2018-May-07 22:30N 34°25' E 135°09'0 0.0
2018-May-07 22:00N 34°25' E 135°09'0 0.0
2018-May-07 21:30N 34°25' E 135°09'0 0.1
2018-May-07 21:00N 34°25' E 135°09'0 0.1
2018-May-07 20:30N 34°25' E 135°09'0 0.0
2018-May-07 20:00N 34°25' E 135°09'0 0.0
2018-May-07 19:30N 34°25' E 135°09'0 0.0
2018-May-07 19:00N 34°25' E 135°09'0 0.1
2018-May-07 18:30N 34°25' E 135°09'0 0.0
2018-May-07 18:00N 34°25' E 135°09'0 0.1
2018-May-07 17:30N 34°25' E 135°09'0 0.0
2018-May-07 17:00N 34°25' E 135°09'0 0.1
2018-May-07 16:30N 34°25' E 135°09'0 0.0
2018-May-07 16:00N 34°25' E 135°09'0 0.0
2018-May-07 15:30N 34°25' E 135°09'0 0.0
2018-May-07 15:00N 34°25' E 135°09'0 0.1
2018-May-07 14:30N 34°25' E 135°09'1 1.9
2018-May-07 14:00N 34°26' E 135°10'5 9.6
2018-May-07 13:30N 34°29' E 135°13'510.5
2018-May-07 13:00N 34°33' E 135°17'510.3
2018-May-07 12:30N 34°37' E 135°22'4 8.5
2018-May-07 12:00N 34°38' E 135°27'1 1.5
2018-May-07 11:30N 34°38' E 135°27'0 0.0
2018-May-07 10:57N 34°38' E 135°27'0 0.0
2018-May-07 10:30N 34°38' E 135°27'0 0.0
2018-May-07 10:00N 34°38' E 135°27'0 0.0
2018-May-07 09:30N 34°38' E 135°27'0 0.0
2018-May-07 08:57N 34°38' E 135°27'0 0.0
2018-May-07 08:30N 34°38' E 135°27'0 0.0
2018-May-07 08:00N 34°38' E 135°27'0 0.0
2018-May-07 07:30N 34°38' E 135°27'0 0.0
2018-May-07 07:00N 34°38' E 135°27'0 0.0
2018-May-07 06:30N 34°38' E 135°27'0 0.0
2018-May-07 06:00N 34°38' E 135°27'0 0.0
2018-May-07 05:30N 34°38' E 135°27'0 0.0
2018-May-07 05:00N 34°38' E 135°27'0 0.0
2018-May-07 04:29N 34°38' E 135°27'0 0.1
2018-May-07 04:01N 34°38' E 135°27'2 4.0
2018-May-07 03:31N 34°39' E 135°25'3 5.3
2018-May-07 03:00N 34°37' E 135°22'0 0.0
2018-May-07 02:29N 34°37' E 135°22'0 0.0
2018-May-07 01:59N 34°37' E 135°22'0 0.0
2018-May-07 01:29N 34°37' E 135°22'0 0.1
2018-May-07 00:59N 34°37' E 135°23'1 1.7
2018-May-07 00:30N 34°37' E 135°22'4 7.2
2018-May-07 00:00N 34°36' E 135°18'3 6.4
2018-May-06 23:31N 34°35' E 135°14'4 8.2
2018-May-06 23:00N 34°35' E 135°09'4 8.4
2018-May-06 22:31N 34°35' E 135°04'510.0
2018-May-06 22:00N 34°37' E 134°58'510.3
2018-May-06 21:30N 34°34' E 134°52'5 9.9
2018-May-06 21:00N 34°32' E 134°47'5 9.5
2018-May-06 20:30N 34°30' E 134°41'5 9.8
2018-May-06 20:00N 34°29' E 134°36'5 9.5
2018-May-06 19:30N 34°27' E 134°31'5 9.4
2018-May-06 19:00N 34°25' E 134°25'5 9.7
2018-May-06 18:30N 34°24' E 134°20'8 9.9
2018-May-06 17:39N 34°25' E 134°10'73 8.3
2018-May-06 08:50N 34°01' E 132°46'3 8.5
2018-May-06 08:30N 33°58' E 132°44'4 8.5
2018-May-06 08:00N 33°56' E 132°40'5 8.9
2018-May-06 07:27N 33°52' E 132°36'5 9.4
2018-May-06 06:57N 33°49' E 132°32'13 9.8
2018-May-06 05:39N 33°44' E 132°18'3 9.7
2018-May-06 05:24N 33°43' E 132°15'15 9.7
2018-May-06 03:50N 33°43' E 131°57'410.0
2018-May-06 03:29N 33°44' E 131°53'5 9.9
2018-May-06 03:00N 33°45' E 131°47'5 9.5
2018-May-06 02:30N 33°46' E 131°41'5 9.6
2018-May-06 02:00N 33°47' E 131°36'5 9.6
2018-May-06 01:30N 33°48' E 131°30'5 9.7
2018-May-06 01:00N 33°49' E 131°24'5 9.6
2018-May-06 00:30N 33°50' E 131°19'5 9.5
2018-May-06 00:00N 33°51' E 131°13'5 9.6
2018-May-05 23:30N 33°53' E 131°08'5 9.9
2018-May-05 23:00N 33°56' E 131°03'5 9.4
2018-May-05 22:30N 33°58' E 130°58'510.2
2018-May-05 22:00N 33°54' E 130°54'510.3
2018-May-05 21:30N 33°58' E 130°50'5 9.1
2018-May-05 21:00N 34°02' E 130°48'5 9.4
2018-May-05 20:30N 34°03' E 130°42'510.1
2018-May-05 20:00N 34°03' E 130°36'5 9.8
2018-May-05 19:30N 34°03' E 130°30'510.1
2018-May-05 19:00N 34°02' E 130°24'510.0
2018-May-05 18:30N 34°03' E 130°18'510.0
2018-May-05 18:00N 34°03' E 130°12'510.3
2018-May-05 17:30N 34°03' E 130°06'510.1
2018-May-05 16:59N 34°03' E 129°60'510.1
2018-May-05 16:30N 34°03' E 129°54'510.0
2018-May-05 16:00N 34°03' E 129°48'610.0
2018-May-05 15:23N 34°02' E 129°40'410.0
2018-May-05 15:00N 34°02' E 129°36'510.0
2018-May-05 14:28N 34°02' E 129°29'14 9.7
2018-May-05 13:03N 34°02' E 129°13'1 9.9
2018-May-05 13:00N 34°02' E 129°12'610.0
2018-May-05 12:21N 34°02' E 129°04'410.3
2018-May-05 12:00N 34°02' E 128°60'510.3
2018-May-05 11:30N 34°02' E 128°54'610.6
2018-May-05 10:58N 34°02' E 128°47'510.7
2018-May-05 10:28N 34°01' E 128°40'6110.5
2018-May-05 04:40N 33°59' E 127°27'  
Track history (hours):
 
Tides and Currents Weather Stations Pressure Air Temp Water Temp Dewpoint Dewpoint Depression Visibility Wind Speed Wind Dir Waves Ship Positions

Atsuta

Last reported at 2018-May-15 04:29 UTC. Time now 2018-Jun-25 17:37 UTC.
Position N 34°03' E 129°35'.
Warning: this ship's position is 41 days out of date.

Length 155 m; beam 24.5 m.

MMSI: 351212000.

Date/timePositionNaut miles runAvg speedWind from/ knotsBaromVisibWave heightAir tempDewpointWater temp
2018-May-15 04:29N 34°03' E 129°35'4 9.0
2018-May-15 04:00N 34°03' E 129°40'26 9.0
2018-May-15 01:09N 34°03' E 130°11'2 9.3
2018-May-15 00:58N 34°03' E 130°13'4 9.2
2018-May-15 00:30N 34°03' E 130°18'5 9.3
2018-May-15 00:00N 34°03' E 130°23'5 9.4
2018-May-14 23:30N 34°03' E 130°29'5 9.6
2018-May-14 23:00N 34°03' E 130°35'5 9.9
2018-May-14 22:30N 34°03' E 130°41'5 9.8
2018-May-14 22:00N 34°02' E 130°47'4 8.9
2018-May-14 21:30N 33°59' E 130°51'5 9.2
2018-May-14 21:00N 33°55' E 130°53'3 5.9
2018-May-14 20:30N 33°57' E 130°56'4 7.5
2018-May-14 20:00N 33°59' E 131°00'5 9.6
2018-May-14 19:30N 33°56' E 131°05'5 9.9
2018-May-14 19:00N 33°53' E 131°10'5 9.5
2018-May-14 18:30N 33°52' E 131°15'5 9.4
2018-May-14 18:00N 33°51' E 131°21'5 9.4
2018-May-14 17:30N 33°50' E 131°26'5 9.1
2018-May-14 17:00N 33°49' E 131°32'5 9.5
2018-May-14 16:30N 33°48' E 131°37'5 8.9
2018-May-14 15:58N 33°46' E 131°43'4 8.7
2018-May-14 15:30N 33°46' E 131°48'5 9.1
2018-May-14 14:58N 33°45' E 131°53'4 9.3
2018-May-14 14:30N 33°44' E 131°58'5 9.5
2018-May-14 14:00N 33°43' E 132°04'6 9.4
2018-May-14 13:24N 33°42' E 132°11'20 9.4
2018-May-14 11:16N 33°51' E 132°33'2 8.9
2018-May-14 11:00N 33°52' E 132°35'4 8.2
2018-May-14 10:28N 33°55' E 132°39'3 7.3
2018-May-14 09:59N 33°57' E 132°42'4 8.0
2018-May-14 09:30N 34°01' E 132°45'84 8.6
2018-May-13 23:43N 34°25' E 134°22'210.0
2018-May-13 23:30N 34°26' E 134°25'510.0
2018-May-13 23:00N 34°28' E 134°30'510.3
2018-May-13 22:29N 34°30' E 134°36'510.2
2018-May-13 22:00N 34°31' E 134°42'510.9
2018-May-13 21:30N 34°34' E 134°48'612.1
2018-May-13 21:00N 34°36' E 134°55'510.6
2018-May-13 20:30N 34°38' E 135°01'5 9.6
2018-May-13 20:00N 34°35' E 135°05'5 9.6
2018-May-13 19:31N 34°30' E 135°04'5 9.8
2018-May-13 19:00N 34°25' E 135°02'5 9.5
2018-May-13 18:31N 34°21' E 135°01'4 8.8
2018-May-13 18:01N 34°17' E 134°59'4 8.5
2018-May-13 17:30N 34°12' E 134°60'5 9.3
2018-May-13 17:00N 34°08' E 134°60'5 9.7
2018-May-13 16:31N 34°03' E 135°00'5 9.4
2018-May-13 16:00N 33°58' E 135°01'4 9.0
2018-May-13 15:30N 33°54' E 135°01'177 7.7
2018-May-12 16:36N 34°33' E 138°31'1 9.1
2018-May-12 16:29N 34°33' E 138°32'5 9.3
2018-May-12 15:54N 34°33' E 138°38'8 8.9
2018-May-12 14:59N 34°34' E 138°48'4 8.0
2018-May-12 14:27N 34°35' E 138°53'4 7.9
2018-May-12 14:00N 34°36' E 138°57'5 8.8
2018-May-12 13:29N 34°38' E 139°02'4 8.5
2018-May-12 12:58N 34°41' E 139°06'4 8.2
2018-May-12 12:27N 34°44' E 139°10'3 7.7
2018-May-12 12:00N 34°46' E 139°13'6 7.3
2018-May-12 11:08N 34°51' E 139°19'2 6.5
2018-May-12 10:51N 34°52' E 139°20'3 7.3
2018-May-12 10:26N 34°54' E 139°23'6 7.6
2018-May-12 09:39N 34°58' E 139°29'3 7.6
2018-May-12 09:18N 34°59' E 139°31'3 7.5
2018-May-12 08:57N 35°01' E 139°34'4 7.6
2018-May-12 08:30N 35°04' E 139°37'4 8.2
2018-May-12 08:00N 35°06' E 139°40'4 8.2
2018-May-12 07:31N 35°09' E 139°44'4 8.7
2018-May-12 07:01N 35°13' E 139°46'5 9.3
2018-May-12 06:31N 35°17' E 139°45'5 9.8
2018-May-12 06:01N 35°22' E 139°42'4 8.8
2018-May-12 05:31N 35°26' E 139°42'3 5.7
2018-May-12 04:58N 35°28' E 139°39'0 0.1
2018-May-12 04:28N 35°28' E 139°39'0 0.0
2018-May-12 03:58N 35°28' E 139°39'0 0.0
2018-May-12 03:28N 35°28' E 139°39'0 0.0
2018-May-12 02:58N 35°28' E 139°39'0 0.0
2018-May-12 02:28N 35°28' E 139°39'0 0.0
2018-May-12 01:58N 35°28' E 139°39'0 0.0
2018-May-12 01:28N 35°28' E 139°39'0 0.0
2018-May-12 00:58N 35°28' E 139°39'0 0.0
2018-May-12 00:28N 35°28' E 139°39'0 0.0
2018-May-11 23:58N 35°28' E 139°39'0 0.0
2018-May-11 23:28N 35°28' E 139°39'0 0.0
2018-May-11 22:58N 35°28' E 139°39'0 0.0
2018-May-11 22:28N 35°28' E 139°39'0 0.0
2018-May-11 21:55N 35°28' E 139°39'0 0.0
2018-May-11 21:28N 35°28' E 139°39'0 0.0
2018-May-11 20:58N 35°28' E 139°39'0 0.0
2018-May-11 20:28N 35°28' E 139°39'0 0.0
2018-May-11 19:58N 35°28' E 139°39'0 0.0
2018-May-11 19:28N 35°28' E 139°39'0 0.0
2018-May-11 18:58N 35°28' E 139°39'0 0.0
2018-May-11 18:28N 35°28' E 139°39'0 0.0
2018-May-11 17:58N 35°28' E 139°39'0 0.0
2018-May-11 17:28N 35°28' E 139°39'0 0.0
2018-May-11 16:58N 35°28' E 139°39'0 0.0
2018-May-11 16:28N 35°28' E 139°39'0 0.0
2018-May-11 15:58N 35°28' E 139°39'0 0.0
2018-May-11 15:28N 35°28' E 139°39'0 0.0
2018-May-11 14:58N 35°28' E 139°39'0 0.0
2018-May-11 14:28N 35°28' E 139°39'0 0.0
2018-May-11 13:58N 35°28' E 139°39'0 0.0
2018-May-11 13:28N 35°28' E 139°39'0 0.0
2018-May-11 12:58N 35°28' E 139°39'0 0.0
2018-May-11 12:28N 35°28' E 139°39'0 0.0
2018-May-11 11:58N 35°28' E 139°39'0 0.0
2018-May-11 11:28N 35°28' E 139°39'0 0.0
2018-May-11 10:58N 35°28' E 139°39'0 0.0
2018-May-11 10:28N 35°28' E 139°39'0 0.0
2018-May-11 09:58N 35°28' E 139°39'0 0.0
2018-May-11 09:28N 35°28' E 139°39'0 0.0
2018-May-11 08:58N 35°28' E 139°39'0 0.0
2018-May-11 08:28N 35°28' E 139°39'0 0.0
2018-May-11 07:58N 35°28' E 139°39'0 0.0
2018-May-11 07:28N 35°28' E 139°39'0 0.0
2018-May-11 06:58N 35°28' E 139°39'0 0.0
2018-May-11 06:31N 35°28' E 139°39'0 0.0
2018-May-11 05:55N 35°28' E 139°39'0 0.0
2018-May-11 05:31N 35°28' E 139°39'0 0.0
2018-May-11 05:00N 35°28' E 139°39'0 0.0
2018-May-11 04:30N 35°28' E 139°39'0 0.0
2018-May-11 04:00N 35°28' E 139°39'0 0.0
2018-May-11 03:30N 35°28' E 139°39'0 0.0
2018-May-11 03:00N 35°28' E 139°39'0 0.0
2018-May-11 02:30N 35°28' E 139°39'0 0.0
2018-May-11 02:00N 35°28' E 139°39'0 0.0
2018-May-11 01:30N 35°28' E 139°39'0 0.0
2018-May-11 01:00N 35°28' E 139°39'0 0.0
2018-May-11 00:30N 35°28' E 139°39'0 0.0
2018-May-11 00:00N 35°28' E 139°39'0 0.0
2018-May-10 23:30N 35°28' E 139°39'0 0.0
2018-May-10 23:00N 35°28' E 139°39'0 0.0
2018-May-10 22:31N 35°28' E 139°39'0 0.9
2018-May-10 22:00N 35°28' E 139°40'3 6.9
2018-May-10 21:30N 35°26' E 139°43'1 1.1
2018-May-10 21:00N 35°26' E 139°43'0 0.0
2018-May-10 20:30N 35°26' E 139°43'0 0.0
2018-May-10 20:00N 35°26' E 139°43'0 0.0
2018-May-10 19:30N 35°26' E 139°43'0 0.0
2018-May-10 19:00N 35°26' E 139°43'0 0.0
2018-May-10 18:30N 35°26' E 139°43'0 0.0
2018-May-10 18:00N 35°26' E 139°43'0 0.0
2018-May-10 17:30N 35°26' E 139°43'0 0.0
2018-May-10 17:00N 35°26' E 139°43'0 0.9
2018-May-10 16:30N 35°26' E 139°43'3 6.9
2018-May-10 16:00N 35°22' E 139°43'5 9.8
2018-May-10 15:30N 35°18' E 139°45'5 9.4
2018-May-10 15:00N 35°13' E 139°47'5 9.5
2018-May-10 14:30N 35°09' E 139°45'5 9.4
2018-May-10 13:58N 35°04' E 139°42'510.1
2018-May-10 13:30N 35°02' E 139°38'510.7
2018-May-10 13:00N 34°58' E 139°32'611.0
2018-May-10 12:30N 34°55' E 139°27'1310.9
2018-May-10 11:16N 34°46' E 139°15'410.9
2018-May-10 10:56N 34°43' E 139°12'510.6
2018-May-10 10:30N 34°40' E 139°08'710.4
2018-May-10 09:50N 34°37' E 139°00'410.7
2018-May-10 09:29N 34°35' E 138°56'510.4
2018-May-10 08:59N 34°34' E 138°50'510.1
2018-May-10 08:28N 34°33' E 138°44'510.3
2018-May-10 07:59N 34°33' E 138°38'610.9
2018-May-10 07:26N 34°32' E 138°31'510.9
2018-May-10 06:57N 34°32' E 138°24'510.8
2018-May-10 06:30N 34°31' E 138°18'610.7
2018-May-10 05:59N 34°31' E 138°12'159 8.4
2018-May-09 11:09N 33°47' E 135°07'511.1
2018-May-09 10:44N 33°51' E 135°03'311.5
2018-May-09 10:30N 33°53' E 135°01'611.5
2018-May-09 10:00N 33°59' E 135°01'611.4
2018-May-09 09:30N 34°04' E 135°00'510.9
2018-May-09 09:00N 34°10' E 134°59'611.4
2018-May-09 08:30N 34°15' E 134°59'511.0
2018-May-09 08:00N 34°21' E 135°00'4 8.6
2018-May-09 07:30N 34°23' E 135°04'4 7.6
2018-May-09 07:00N 34°25' E 135°09'0 0.1
2018-May-09 06:28N 34°25' E 135°09'0 0.1
2018-May-09 05:58N 34°25' E 135°09'0 0.1
2018-May-09 05:25N 34°25' E 135°09'0 0.0
2018-May-09 04:58N 34°25' E 135°09'0 0.0
2018-May-09 04:28N 34°25' E 135°09'0 0.0
2018-May-09 03:58N 34°25' E 135°09'0 0.0
2018-May-09 03:28N 34°25' E 135°09'0 0.0
2018-May-09 02:58N 34°25' E 135°09'0 0.0
2018-May-09 02:28N 34°25' E 135°09'0 0.0
2018-May-09 01:58N 34°25' E 135°09'0 0.0
2018-May-09 01:28N 34°25' E 135°09'0 0.0
2018-May-09 00:58N 34°25' E 135°09'0 0.0
2018-May-09 00:28N 34°25' E 135°09'0 0.0
2018-May-08 23:58N 34°25' E 135°09'0 0.0
2018-May-08 23:28N 34°25' E 135°09'0 0.0
2018-May-08 22:58N 34°25' E 135°09'0 0.0
2018-May-08 22:25N 34°25' E 135°09'0 0.0
2018-May-08 21:58N 34°25' E 135°09'0 0.0
2018-May-08 21:28N 34°25' E 135°09'0 0.0
2018-May-08 20:58N 34°25' E 135°09'0 0.0
2018-May-08 20:28N 34°25' E 135°09'0 0.1
2018-May-08 19:58N 34°25' E 135°09'0 0.0
2018-May-08 19:28N 34°25' E 135°09'0 0.1
2018-May-08 18:55N 34°25' E 135°09'0 0.0
2018-May-08 18:28N 34°25' E 135°09'0 0.1
2018-May-08 17:58N 34°25' E 135°09'0 0.1
2018-May-08 17:28N 34°25' E 135°09'0 0.0
2018-May-08 16:58N 34°25' E 135°09'0 0.0
2018-May-08 16:28N 34°25' E 135°09'0 0.0
2018-May-08 15:58N 34°25' E 135°09'0 0.0
2018-May-08 15:28N 34°25' E 135°09'0 0.1
2018-May-08 15:01N 34°25' E 135°09'0 0.0
2018-May-08 14:31N 34°25' E 135°09'0 0.0
2018-May-08 14:01N 34°25' E 135°09'0 0.0
2018-May-08 13:27N 34°25' E 135°09'0 0.0
2018-May-08 13:00N 34°25' E 135°09'0 0.0
2018-May-08 12:30N 34°25' E 135°09'0 0.0
2018-May-08 12:00N 34°25' E 135°09'0 0.0
2018-May-08 11:30N 34°25' E 135°09'0 0.0
2018-May-08 11:00N 34°25' E 135°09'0 0.0
2018-May-08 10:30N 34°25' E 135°09'0 0.0
2018-May-08 10:00N 34°25' E 135°09'0 0.1
2018-May-08 09:30N 34°25' E 135°09'0 0.1
2018-May-08 09:00N 34°25' E 135°09'0 0.0
2018-May-08 08:30N 34°25' E 135°09'0 0.1
2018-May-08 08:00N 34°25' E 135°09'0 0.0
2018-May-08 07:30N 34°25' E 135°09'0 0.0
2018-May-08 07:00N 34°25' E 135°09'0 0.1
2018-May-08 06:30N 34°25' E 135°09'0 0.0
2018-May-08 06:00N 34°25' E 135°09'0 0.0
2018-May-08 05:30N 34°25' E 135°09'0 0.1
2018-May-08 05:00N 34°25' E 135°09'0 0.0
2018-May-08 04:30N 34°25' E 135°09'0 0.1
2018-May-08 04:00N 34°25' E 135°09'0 0.0
2018-May-08 03:30N 34°25' E 135°09'0 0.1
2018-May-08 03:00N 34°25' E 135°09'0 0.0
2018-May-08 02:30N 34°25' E 135°09'0 0.0
2018-May-08 02:00N 34°25' E 135°09'0 0.0
2018-May-08 01:30N 34°25' E 135°09'0 0.0
2018-May-08 01:00N 34°25' E 135°09'0 0.0
2018-May-08 00:30N 34°25' E 135°09'0 0.0
2018-May-08 00:00N 34°25' E 135°09'0 0.0
2018-May-07 23:30N 34°25' E 135°09'0 0.0
2018-May-07 23:00N 34°25' E 135°09'0 0.0
2018-May-07 22:30N 34°25' E 135°09'0 0.0
2018-May-07 22:00N 34°25' E 135°09'0 0.0
2018-May-07 21:30N 34°25' E 135°09'0 0.1
2018-May-07 21:00N 34°25' E 135°09'0 0.1
2018-May-07 20:30N 34°25' E 135°09'0 0.0
2018-May-07 20:00N 34°25' E 135°09'0 0.0
2018-May-07 19:30N 34°25' E 135°09'0 0.0
2018-May-07 19:00N 34°25' E 135°09'0 0.1
2018-May-07 18:30N 34°25' E 135°09'0 0.0
2018-May-07 18:00N 34°25' E 135°09'0 0.1
2018-May-07 17:30N 34°25' E 135°09'0 0.0
2018-May-07 17:00N 34°25' E 135°09'0 0.1
2018-May-07 16:30N 34°25' E 135°09'0 0.0
2018-May-07 16:00N 34°25' E 135°09'0 0.0
2018-May-07 15:30N 34°25' E 135°09'0 0.0
2018-May-07 15:00N 34°25' E 135°09'0 0.1
2018-May-07 14:30N 34°25' E 135°09'1 1.9
2018-May-07 14:00N 34°26' E 135°10'5 9.6
2018-May-07 13:30N 34°29' E 135°13'510.5
2018-May-07 13:00N 34°33' E 135°17'510.3
2018-May-07 12:30N 34°37' E 135°22'4 8.5
2018-May-07 12:00N 34°38' E 135°27'1 1.5
2018-May-07 11:30N 34°38' E 135°27'0 0.0
2018-May-07 10:57N 34°38' E 135°27'0 0.0
2018-May-07 10:30N 34°38' E 135°27'0 0.0
2018-May-07 10:00N 34°38' E 135°27'0 0.0
2018-May-07 09:30N 34°38' E 135°27'0 0.0
2018-May-07 08:57N 34°38' E 135°27'0 0.0
2018-May-07 08:30N 34°38' E 135°27'0 0.0
2018-May-07 08:00N 34°38' E 135°27'0 0.0
2018-May-07 07:30N 34°38' E 135°27'0 0.0
2018-May-07 07:00N 34°38' E 135°27'0 0.0
2018-May-07 06:30N 34°38' E 135°27'0 0.0
2018-May-07 06:00N 34°38' E 135°27'0 0.0
2018-May-07 05:30N 34°38' E 135°27'0 0.0
2018-May-07 05:00N 34°38' E 135°27'0 0.0
2018-May-07 04:29N 34°38' E 135°27'0 0.1
2018-May-07 04:01N 34°38' E 135°27'2 4.0
2018-May-07 03:31N 34°39' E 135°25'3 5.3
2018-May-07 03:00N 34°37' E 135°22'0 0.0
2018-May-07 02:29N 34°37' E 135°22'0 0.0
2018-May-07 01:59N 34°37' E 135°22'0 0.0
2018-May-07 01:29N 34°37' E 135°22'0 0.1
2018-May-07 00:59N 34°37' E 135°23'1 1.7
2018-May-07 00:30N 34°37' E 135°22'4 7.2
2018-May-07 00:00N 34°36' E 135°18'3 6.4
2018-May-06 23:31N 34°35' E 135°14'4 8.2
2018-May-06 23:00N 34°35' E 135°09'4 8.4
2018-May-06 22:31N 34°35' E 135°04'510.0
2018-May-06 22:00N 34°37' E 134°58'510.3
2018-May-06 21:30N 34°34' E 134°52'5 9.9
2018-May-06 21:00N 34°32' E 134°47'5 9.5
2018-May-06 20:30N 34°30' E 134°41'5 9.8
2018-May-06 20:00N 34°29' E 134°36'5 9.5
2018-May-06 19:30N 34°27' E 134°31'5 9.4
2018-May-06 19:00N 34°25' E 134°25'5 9.7
2018-May-06 18:30N 34°24' E 134°20'8 9.9
2018-May-06 17:39N 34°25' E 134°10'73 8.3
2018-May-06 08:50N 34°01' E 132°46'3 8.5
2018-May-06 08:30N 33°58' E 132°44'4 8.5
2018-May-06 08:00N 33°56' E 132°40'5 8.9
2018-May-06 07:27N 33°52' E 132°36'5 9.4
2018-May-06 06:57N 33°49' E 132°32'13 9.8
2018-May-06 05:39N 33°44' E 132°18'3 9.7
2018-May-06 05:24N 33°43' E 132°15'15 9.7
2018-May-06 03:50N 33°43' E 131°57'410.0
2018-May-06 03:29N 33°44' E 131°53'5 9.9
2018-May-06 03:00N 33°45' E 131°47'5 9.5
2018-May-06 02:30N 33°46' E 131°41'5 9.6
2018-May-06 02:00N 33°47' E 131°36'5 9.6
2018-May-06 01:30N 33°48' E 131°30'5 9.7
2018-May-06 01:00N 33°49' E 131°24'5 9.6
2018-May-06 00:30N 33°50' E 131°19'5 9.5
2018-May-06 00:00N 33°51' E 131°13'5 9.6
2018-May-05 23:30N 33°53' E 131°08'5 9.9
2018-May-05 23:00N 33°56' E 131°03'5 9.4
2018-May-05 22:30N 33°58' E 130°58'510.2
2018-May-05 22:00N 33°54' E 130°54'510.3
2018-May-05 21:30N 33°58' E 130°50'5 9.1
2018-May-05 21:00N 34°02' E 130°48'5 9.4
2018-May-05 20:30N 34°03' E 130°42'510.1
2018-May-05 20:00N 34°03' E 130°36'5 9.8
2018-May-05 19:30N 34°03' E 130°30'510.1
2018-May-05 19:00N 34°02' E 130°24'510.0
2018-May-05 18:30N 34°03' E 130°18'510.0
2018-May-05 18:00N 34°03' E 130°12'510.3
2018-May-05 17:30N 34°03' E 130°06'510.1
2018-May-05 16:59N 34°03' E 129°60'510.1
2018-May-05 16:30N 34°03' E 129°54'510.0
2018-May-05 16:00N 34°03' E 129°48'610.0
2018-May-05 15:23N 34°02' E 129°40'410.0
2018-May-05 15:00N 34°02' E 129°36'510.0
2018-May-05 14:28N 34°02' E 129°29'14 9.7
2018-May-05 13:03N 34°02' E 129°13'1 9.9
2018-May-05 13:00N 34°02' E 129°12'610.0
2018-May-05 12:21N 34°02' E 129°04'410.3
2018-May-05 12:00N 34°02' E 128°60'510.3
2018-May-05 11:30N 34°02' E 128°54'610.6
2018-May-05 10:58N 34°02' E 128°47'510.7
2018-May-05 10:28N 34°01' E 128°40'6110.5
2018-May-05 04:40N 33°59' E 127°27'  

Dump ship's entire track history